Terminal Aerodrome Forecast
Issued by NWS Louisville, KY

Home | Current Version | Previous Version | Text Only | Print | Product List | Glossary On
Versions: 1 2 3 4 5 6 7 8 9 10 11 12 13
000
FTUS43 KLMK 010900 AAA
TAFLEX
TAF AMD
KLEX 010901Z 0109/0206 35007KT P6SM SCT010 BKN025
     FM011600 36007KT P6SM BKN050
     FM020000 VRB03KT P6SM SCT050=

USA.gov is the U.S. government's official web portal to all federal, state and local government web resources and services.